sensor_id;sensor_type;location;lat;lon;timestamp;P1;durP1;ratioP1;P2;durP2;ratioP2
12328;SDS011;6230;52.390;10.256;2023-02-22T00:00:11;48.40;;;25.03;;
12328;SDS011;6230;52.390;10.256;2023-02-22T00:02:46;51.97;;;26.73;;
12328;SDS011;6230;52.390;10.256;2023-02-22T00:05:14;47.10;;;24.63;;
12328;SDS011;6230;52.390;10.256;2023-02-22T00:07:41;47.73;;;25.50;;
12328;SDS011;6230;52.390;10.256;2023-02-22T00:10:08;51.37;;;26.80;;
12328;SDS011;6230;52.390;10.256;2023-02-22T00:12:37;48.13;;;24.97;;
12328;SDS011;6230;52.390;10.256;2023-02-22T00:15:06;48.80;;;26.40;;
12328;SDS011;6230;52.390;10.256;2023-02-22T00:17:33;52.23;;;26.30;;
12328;SDS011;6230;52.390;10.256;2023-02-22T00:19:59;51.90;;;25.80;;
12328;SDS011;6230;52.390;10.256;2023-02-22T00:22:25;48.83;;;25.50;;
12328;SDS011;6230;52.390;10.256;2023-02-22T00:24:50;49.13;;;26.90;;
12328;SDS011;6230;52.390;10.256;2023-02-22T00:27:16;51.40;;;25.30;;
12328;SDS011;6230;52.390;10.256;2023-02-22T00:29:43;51.83;;;26.80;;
12328;SDS011;6230;52.390;10.256;2023-02-22T00:32:10;46.30;;;24.13;;
12328;SDS011;6230;52.390;10.256;2023-02-22T00:34:35;48.70;;;26.77;;
12328;SDS011;6230;52.390;10.256;2023-02-22T00:37:01;49.03;;;25.33;;
12328;SDS011;6230;52.390;10.256;2023-02-22T00:39:28;48.93;;;24.50;;
12328;SDS011;6230;52.390;10.256;2023-02-22T00:41:54;47.53;;;24.13;;
12328;SDS011;6230;52.390;10.256;2023-02-22T00:44:20;45.83;;;25.43;;
12328;SDS011;6230;52.390;10.256;2023-02-22T00:46:46;51.40;;;25.43;;
12328;SDS011;6230;52.390;10.256;2023-02-22T00:49:12;45.27;;;24.33;;
12328;SDS011;6230;52.390;10.256;2023-02-22T00:51:37;48.50;;;26.23;;
12328;SDS011;6230;52.390;10.256;2023-02-22T00:54:03;53.37;;;26.20;;
12328;SDS011;6230;52.390;10.256;2023-02-22T00:56:29;48.60;;;24.87;;
12328;SDS011;6230;52.390;10.256;2023-02-22T00:58:58;52.63;;;25.67;;
12328;SDS011;6230;52.390;10.256;2023-02-22T01:01:24;51.47;;;26.53;;
12328;SDS011;6230;52.390;10.256;2023-02-22T01:03:51;48.77;;;24.93;;
12328;SDS011;6230;52.390;10.256;2023-02-22T01:06:17;45.50;;;24.57;;
12328;SDS011;6230;52.390;10.256;2023-02-22T01:08:44;43.67;;;21.70;;
12328;SDS011;6230;52.390;10.256;2023-02-22T01:11:10;36.57;;;20.73;;
12328;SDS011;6230;52.390;10.256;2023-02-22T01:13:37;38.27;;;21.80;;
12328;SDS011;6230;52.390;10.256;2023-02-22T01:16:03;36.47;;;20.57;;
12328;SDS011;6230;52.390;10.256;2023-02-22T01:18:32;42.97;;;22.00;;
12328;SDS011;6230;52.390;10.256;2023-02-22T01:20:59;49.93;;;24.80;;
12328;SDS011;6230;52.390;10.256;2023-02-22T01:23:25;46.87;;;24.30;;
12328;SDS011;6230;52.390;10.256;2023-02-22T01:25:51;42.00;;;22.80;;
12328;SDS011;6230;52.390;10.256;2023-02-22T01:28:17;43.60;;;23.67;;
12328;SDS011;6230;52.390;10.256;2023-02-22T01:30:42;46.57;;;23.97;;
12328;SDS011;6230;52.390;10.256;2023-02-22T01:33:08;46.60;;;23.77;;
12328;SDS011;6230;52.390;10.256;2023-02-22T01:35:35;45.37;;;23.53;;
12328;SDS011;6230;52.390;10.256;2023-02-22T01:38:04;52.83;;;24.37;;
12328;SDS011;6230;52.390;10.256;2023-02-22T01:40:32;46.30;;;23.87;;
12328;SDS011;6230;52.390;10.256;2023-02-22T01:43:00;46.07;;;25.00;;
12328;SDS011;6230;52.390;10.256;2023-02-22T01:47:54;44.90;;;24.40;;
12328;SDS011;6230;52.390;10.256;2023-02-22T01:50:26;50.30;;;24.87;;
12328;SDS011;6230;52.390;10.256;2023-02-22T01:52:52;48.93;;;24.53;;
12328;SDS011;6230;52.390;10.256;2023-02-22T01:55:18;48.37;;;24.23;;
12328;SDS011;6230;52.390;10.256;2023-02-22T01:57:44;49.70;;;24.17;;
12328;SDS011;6230;52.390;10.256;2023-02-22T02:00:13;48.47;;;24.40;;
12328;SDS011;6230;52.390;10.256;2023-02-22T02:02:51;48.47;;;24.87;;
12328;SDS011;6230;52.390;10.256;2023-02-22T02:05:22;50.23;;;24.40;;
12328;SDS011;6230;52.390;10.256;2023-02-22T02:07:49;46.03;;;24.50;;
12328;SDS011;6230;52.390;10.256;2023-02-22T02:10:15;50.63;;;25.60;;
12328;SDS011;6230;52.390;10.256;2023-02-22T02:12:42;49.27;;;25.77;;
12328;SDS011;6230;52.390;10.256;2023-02-22T02:17:47;52.20;;;25.17;;
12328;SDS011;6230;52.390;10.256;2023-02-22T02:20:23;49.23;;;25.07;;
12328;SDS011;6230;52.390;10.256;2023-02-22T02:33:42;50.33;;;25.43;;
12328;SDS011;6230;52.390;10.256;2023-02-22T02:39:07;55.90;;;25.60;;
12328;SDS011;6230;52.390;10.256;2023-02-22T02:41:46;48.17;;;24.43;;
12328;SDS011;6230;52.390;10.256;2023-02-22T02:44:36;52.67;;;26.63;;
12328;SDS011;6230;52.390;10.256;2023-02-22T02:47:04;57.27;;;26.43;;
12328;SDS011;6230;52.390;10.256;2023-02-22T02:49:40;49.90;;;24.93;;
12328;SDS011;6230;52.390;10.256;2023-02-22T02:52:11;51.40;;;25.23;;
12328;SDS011;6230;52.390;10.256;2023-02-22T02:54:38;54.23;;;25.40;;
12328;SDS011;6230;52.390;10.256;2023-02-22T02:57:05;55.57;;;26.70;;
12328;SDS011;6230;52.390;10.256;2023-02-22T02:59:34;48.63;;;25.23;;
12328;SDS011;6230;52.390;10.256;2023-02-22T03:02:10;56.67;;;27.00;;
12328;SDS011;6230;52.390;10.256;2023-02-22T03:07:41;53.63;;;25.77;;
12328;SDS011;6230;52.390;10.256;2023-02-22T03:16:20;51.77;;;24.03;;
12328;SDS011;6230;52.390;10.256;2023-02-22T03:21:43;55.93;;;27.03;;
12328;SDS011;6230;52.390;10.256;2023-02-22T03:27:05;56.33;;;26.37;;
12328;SDS011;6230;52.390;10.256;2023-02-22T03:29:43;57.73;;;26.77;;
12328;SDS011;6230;52.390;10.256;2023-02-22T03:32:11;52.67;;;24.03;;
12328;SDS011;6230;52.390;10.256;2023-02-22T03:34:41;65.33;;;27.93;;
12328;SDS011;6230;52.390;10.256;2023-02-22T03:37:11;54.33;;;25.37;;
12328;SDS011;6230;52.390;10.256;2023-02-22T03:39:40;56.17;;;27.60;;
12328;SDS011;6230;52.390;10.256;2023-02-22T03:42:10;55.50;;;24.23;;
12328;SDS011;6230;52.390;10.256;2023-02-22T03:44:40;57.03;;;27.07;;
12328;SDS011;6230;52.390;10.256;2023-02-22T03:47:10;59.60;;;26.33;;
12328;SDS011;6230;52.390;10.256;2023-02-22T03:49:41;60.70;;;27.23;;
12328;SDS011;6230;52.390;10.256;2023-02-22T03:52:20;60.40;;;28.10;;
12328;SDS011;6230;52.390;10.256;2023-02-22T03:54:50;56.77;;;27.63;;
12328;SDS011;6230;52.390;10.256;2023-02-22T03:57:24;56.47;;;25.83;;
12328;SDS011;6230;52.390;10.256;2023-02-22T03:59:52;61.93;;;26.43;;
12328;SDS011;6230;52.390;10.256;2023-02-22T04:02:18;51.47;;;25.43;;
12328;SDS011;6230;52.390;10.256;2023-02-22T04:04:44;55.73;;;25.27;;
12328;SDS011;6230;52.390;10.256;2023-02-22T04:07:10;58.27;;;24.93;;
12328;SDS011;6230;52.390;10.256;2023-02-22T04:09:36;53.90;;;25.83;;
12328;SDS011;6230;52.390;10.256;2023-02-22T04:12:02;57.43;;;26.77;;
12328;SDS011;6230;52.390;10.256;2023-02-22T04:14:28;50.60;;;23.30;;
12328;SDS011;6230;52.390;10.256;2023-02-22T04:16:53;61.03;;;26.60;;
12328;SDS011;6230;52.390;10.256;2023-02-22T04:19:19;51.80;;;24.73;;
12328;SDS011;6230;52.390;10.256;2023-02-22T04:21:45;51.20;;;23.50;;
12328;SDS011;6230;52.390;10.256;2023-02-22T04:24:11;52.37;;;25.10;;
12328;SDS011;6230;52.390;10.256;2023-02-22T04:26:36;53.77;;;25.43;;
12328;SDS011;6230;52.390;10.256;2023-02-22T04:29:02;52.10;;;24.60;;
12328;SDS011;6230;52.390;10.256;2023-02-22T04:31:28;53.50;;;24.83;;
12328;SDS011;6230;52.390;10.256;2023-02-22T04:33:54;54.37;;;24.80;;
12328;SDS011;6230;52.390;10.256;2023-02-22T04:36:20;53.17;;;24.20;;
12328;SDS011;6230;52.390;10.256;2023-02-22T04:38:45;51.57;;;25.10;;
12328;SDS011;6230;52.390;10.256;2023-02-22T04:41:11;43.87;;;22.57;;
12328;SDS011;6230;52.390;10.256;2023-02-22T04:43:37;53.50;;;23.93;;
12328;SDS011;6230;52.390;10.256;2023-02-22T04:46:03;50.77;;;24.37;;
12328;SDS011;6230;52.390;10.256;2023-02-22T04:48:28;51.90;;;24.00;;
12328;SDS011;6230;52.390;10.256;2023-02-22T04:50:54;53.27;;;24.47;;
12328;SDS011;6230;52.390;10.256;2023-02-22T04:53:20;75.87;;;38.47;;
12328;SDS011;6230;52.390;10.256;2023-02-22T04:55:45;57.00;;;28.53;;
12328;SDS011;6230;52.390;10.256;2023-02-22T04:58:11;55.37;;;26.27;;
12328;SDS011;6230;52.390;10.256;2023-02-22T05:00:37;53.07;;;25.73;;
12328;SDS011;6230;52.390;10.256;2023-02-22T05:03:02;56.37;;;25.17;;
12328;SDS011;6230;52.390;10.256;2023-02-22T05:05:28;49.80;;;23.10;;
12328;SDS011;6230;52.390;10.256;2023-02-22T05:07:54;53.40;;;23.73;;
12328;SDS011;6230;52.390;10.256;2023-02-22T05:10:19;52.00;;;24.70;;
12328;SDS011;6230;52.390;10.256;2023-02-22T05:12:45;48.60;;;22.77;;
12328;SDS011;6230;52.390;10.256;2023-02-22T05:15:14;50.73;;;25.27;;
12328;SDS011;6230;52.390;10.256;2023-02-22T05:17:41;46.20;;;22.27;;
12328;SDS011;6230;52.390;10.256;2023-02-22T05:20:09;45.93;;;22.37;;
12328;SDS011;6230;52.390;10.256;2023-02-22T05:22:54;49.20;;;23.27;;
12328;SDS011;6230;52.390;10.256;2023-02-22T05:25:20;46.17;;;22.20;;
12328;SDS011;6230;52.390;10.256;2023-02-22T05:27:50;47.23;;;22.70;;
12328;SDS011;6230;52.390;10.256;2023-02-22T05:30:21;43.20;;;21.40;;
12328;SDS011;6230;52.390;10.256;2023-02-22T05:32:49;48.07;;;23.00;;
12328;SDS011;6230;52.390;10.256;2023-02-22T05:35:16;51.03;;;23.00;;
12328;SDS011;6230;52.390;10.256;2023-02-22T05:37:42;53.40;;;23.13;;
12328;SDS011;6230;52.390;10.256;2023-02-22T05:40:08;48.27;;;22.23;;
12328;SDS011;6230;52.390;10.256;2023-02-22T05:42:34;48.97;;;22.60;;
12328;SDS011;6230;52.390;10.256;2023-02-22T05:44:59;48.67;;;21.77;;
12328;SDS011;6230;52.390;10.256;2023-02-22T05:47:25;48.43;;;22.00;;
12328;SDS011;6230;52.390;10.256;2023-02-22T05:49:51;48.33;;;21.57;;
12328;SDS011;6230;52.390;10.256;2023-02-22T05:52:17;39.53;;;21.03;;
12328;SDS011;6230;52.390;10.256;2023-02-22T05:54:43;47.63;;;21.77;;
12328;SDS011;6230;52.390;10.256;2023-02-22T05:57:08;51.37;;;22.03;;
12328;SDS011;6230;52.390;10.256;2023-02-22T05:59:34;52.20;;;21.60;;
12328;SDS011;6230;52.390;10.256;2023-02-22T06:01:59;47.43;;;22.43;;
12328;SDS011;6230;52.390;10.256;2023-02-22T06:04:25;46.13;;;21.83;;
12328;SDS011;6230;52.390;10.256;2023-02-22T06:06:51;51.83;;;22.07;;
12328;SDS011;6230;52.390;10.256;2023-02-22T06:09:17;47.53;;;21.30;;
12328;SDS011;6230;52.390;10.256;2023-02-22T06:11:42;48.20;;;22.03;;
12328;SDS011;6230;52.390;10.256;2023-02-22T06:14:08;57.70;;;24.17;;
12328;SDS011;6230;52.390;10.256;2023-02-22T06:16:34;49.97;;;22.37;;
12328;SDS011;6230;52.390;10.256;2023-02-22T06:18:59;49.23;;;22.40;;
12328;SDS011;6230;52.390;10.256;2023-02-22T06:21:25;52.60;;;23.53;;
12328;SDS011;6230;52.390;10.256;2023-02-22T06:23:51;52.33;;;24.50;;
12328;SDS011;6230;52.390;10.256;2023-02-22T06:26:17;48.10;;;22.80;;
12328;SDS011;6230;52.390;10.256;2023-02-22T06:28:44;57.37;;;27.03;;
12328;SDS011;6230;52.390;10.256;2023-02-22T06:31:10;48.23;;;22.90;;
12328;SDS011;6230;52.390;10.256;2023-02-22T06:33:35;50.70;;;24.57;;
12328;SDS011;6230;52.390;10.256;2023-02-22T06:36:01;47.87;;;22.93;;
12328;SDS011;6230;52.390;10.256;2023-02-22T06:38:26;49.10;;;21.97;;
12328;SDS011;6230;52.390;10.256;2023-02-22T06:40:52;45.13;;;21.40;;
12328;SDS011;6230;52.390;10.256;2023-02-22T06:43:19;53.17;;;22.57;;
12328;SDS011;6230;52.390;10.256;2023-02-22T06:45:49;48.37;;;23.20;;
12328;SDS011;6230;52.390;10.256;2023-02-22T06:48:15;55.50;;;23.40;;
12328;SDS011;6230;52.390;10.256;2023-02-22T06:50:41;47.97;;;22.83;;
12328;SDS011;6230;52.390;10.256;2023-02-22T06:53:06;51.60;;;23.13;;
12328;SDS011;6230;52.390;10.256;2023-02-22T06:55:33;49.37;;;23.13;;
12328;SDS011;6230;52.390;10.256;2023-02-22T06:57:59;53.93;;;25.37;;
12328;SDS011;6230;52.390;10.256;2023-02-22T07:00:26;61.27;;;27.93;;
12328;SDS011;6230;52.390;10.256;2023-02-22T07:02:53;53.30;;;23.67;;
12328;SDS011;6230;52.390;10.256;2023-02-22T07:05:20;51.90;;;24.07;;
12328;SDS011;6230;52.390;10.256;2023-02-22T07:07:47;53.20;;;23.93;;
12328;SDS011;6230;52.390;10.256;2023-02-22T07:12:46;51.83;;;23.23;;
12328;SDS011;6230;52.390;10.256;2023-02-22T07:15:12;47.30;;;22.27;;
12328;SDS011;6230;52.390;10.256;2023-02-22T07:17:39;54.77;;;23.00;;
12328;SDS011;6230;52.390;10.256;2023-02-22T07:20:05;51.20;;;22.03;;
12328;SDS011;6230;52.390;10.256;2023-02-22T07:22:31;45.90;;;20.63;;
12328;SDS011;6230;52.390;10.256;2023-02-22T07:24:57;49.20;;;21.00;;
12328;SDS011;6230;52.390;10.256;2023-02-22T07:27:24;50.83;;;22.63;;
12328;SDS011;6230;52.390;10.256;2023-02-22T07:29:49;46.53;;;20.67;;
12328;SDS011;6230;52.390;10.256;2023-02-22T07:32:15;45.80;;;21.03;;
12328;SDS011;6230;52.390;10.256;2023-02-22T07:34:40;44.90;;;20.13;;
12328;SDS011;6230;52.390;10.256;2023-02-22T07:37:07;45.97;;;21.17;;
12328;SDS011;6230;52.390;10.256;2023-02-22T07:39:32;47.30;;;20.57;;
12328;SDS011;6230;52.390;10.256;2023-02-22T07:41:58;46.30;;;20.70;;
12328;SDS011;6230;52.390;10.256;2023-02-22T07:44:24;46.23;;;20.30;;
12328;SDS011;6230;52.390;10.256;2023-02-22T07:46:49;36.90;;;19.47;;
12328;SDS011;6230;52.390;10.256;2023-02-22T07:49:15;41.73;;;19.50;;
12328;SDS011;6230;52.390;10.256;2023-02-22T07:51:41;44.50;;;20.07;;
12328;SDS011;6230;52.390;10.256;2023-02-22T07:54:07;34.83;;;18.33;;
12328;SDS011;6230;52.390;10.256;2023-02-22T07:56:33;40.20;;;18.53;;
12328;SDS011;6230;52.390;10.256;2023-02-22T07:58:58;40.30;;;19.30;;
12328;SDS011;6230;52.390;10.256;2023-02-22T08:01:25;37.70;;;19.00;;
12328;SDS011;6230;52.390;10.256;2023-02-22T08:03:51;38.27;;;18.60;;
12328;SDS011;6230;52.390;10.256;2023-02-22T08:06:16;41.03;;;18.07;;
12328;SDS011;6230;52.390;10.256;2023-02-22T08:08:42;38.53;;;17.40;;
12328;SDS011;6230;52.390;10.256;2023-02-22T08:11:07;31.77;;;16.73;;
12328;SDS011;6230;52.390;10.256;2023-02-22T08:13:34;33.73;;;15.93;;
12328;SDS011;6230;52.390;10.256;2023-02-22T08:16:01;30.30;;;16.83;;
12328;SDS011;6230;52.390;10.256;2023-02-22T08:18:27;29.50;;;16.37;;
12328;SDS011;6230;52.390;10.256;2023-02-22T08:20:53;34.60;;;16.83;;
12328;SDS011;6230;52.390;10.256;2023-02-22T08:23:19;29.27;;;16.20;;
12328;SDS011;6230;52.390;10.256;2023-02-22T08:25:46;30.20;;;17.43;;
12328;SDS011;6230;52.390;10.256;2023-02-22T08:28:13;29.50;;;15.43;;
12328;SDS011;6230;52.390;10.256;2023-02-22T08:30:40;28.50;;;14.30;;
12328;SDS011;6230;52.390;10.256;2023-02-22T08:33:07;28.00;;;15.13;;
12328;SDS011;6230;52.390;10.256;2023-02-22T08:35:34;29.20;;;14.70;;
12328;SDS011;6230;52.390;10.256;2023-02-22T08:38:01;27.77;;;14.20;;
12328;SDS011;6230;52.390;10.256;2023-02-22T08:40:30;26.13;;;14.37;;
12328;SDS011;6230;52.390;10.256;2023-02-22T08:42:57;26.03;;;14.70;;
12328;SDS011;6230;52.390;10.256;2023-02-22T08:45:23;27.17;;;14.77;;
12328;SDS011;6230;52.390;10.256;2023-02-22T08:47:48;26.17;;;14.33;;
12328;SDS011;6230;52.390;10.256;2023-02-22T08:50:16;27.53;;;14.00;;
12328;SDS011;6230;52.390;10.256;2023-02-22T08:52:49;28.40;;;22.17;;
12328;SDS011;6230;52.390;10.256;2023-02-22T08:55:17;26.93;;;15.10;;
12328;SDS011;6230;52.390;10.256;2023-02-22T08:57:45;21.60;;;11.73;;
12328;SDS011;6230;52.390;10.256;2023-02-22T09:00:10;24.47;;;11.83;;
12328;SDS011;6230;52.390;10.256;2023-02-22T09:02:36;20.37;;;12.63;;
12328;SDS011;6230;52.390;10.256;2023-02-22T09:05:02;20.47;;;13.57;;
12328;SDS011;6230;52.390;10.256;2023-02-22T09:07:29;21.23;;;11.83;;
12328;SDS011;6230;52.390;10.256;2023-02-22T09:09:55;16.87;;;11.57;;
12328;SDS011;6230;52.390;10.256;2023-02-22T09:12:20;22.30;;;16.27;;
12328;SDS011;6230;52.390;10.256;2023-02-22T09:14:46;24.17;;;11.20;;
12328;SDS011;6230;52.390;10.256;2023-02-22T09:17:12;19.03;;;11.13;;
12328;SDS011;6230;52.390;10.256;2023-02-22T09:19:37;20.83;;;11.97;;
12328;SDS011;6230;52.390;10.256;2023-02-22T09:22:03;38.07;;;18.83;;
12328;SDS011;6230;52.390;10.256;2023-02-22T09:24:28;16.73;;;10.50;;
12328;SDS011;6230;52.390;10.256;2023-02-22T09:26:54;18.53;;;11.83;;
12328;SDS011;6230;52.390;10.256;2023-02-22T09:29:22;17.77;;;10.20;;
12328;SDS011;6230;52.390;10.256;2023-02-22T09:31:49;19.93;;;12.80;;
12328;SDS011;6230;52.390;10.256;2023-02-22T09:34:17;20.20;;;10.83;;
12328;SDS011;6230;52.390;10.256;2023-02-22T09:36:44;16.07;;;10.00;;
12328;SDS011;6230;52.390;10.256;2023-02-22T09:39:11;20.87;;;12.80;;
12328;SDS011;6230;52.390;10.256;2023-02-22T09:47:19;19.43;;;11.93;;
12328;SDS011;6230;52.390;10.256;2023-02-22T09:49:57;17.03;;;10.43;;
12328;SDS011;6230;52.390;10.256;2023-02-22T09:52:34;18.67;;;11.87;;
12328;SDS011;6230;52.390;10.256;2023-02-22T09:57:38;15.47;;;10.27;;
12328;SDS011;6230;52.390;10.256;2023-02-22T10:00:11;17.73;;;11.13;;
12328;SDS011;6230;52.390;10.256;2023-02-22T10:05:23;16.83;;;10.07;;
12328;SDS011;6230;52.390;10.256;2023-02-22T10:07:54;16.60;;;10.03;;
12328;SDS011;6230;52.390;10.256;2023-02-22T10:10:25;15.90;;;10.07;;
12328;SDS011;6230;52.390;10.256;2023-02-22T10:12:59;16.70;;;10.90;;
12328;SDS011;6230;52.390;10.256;2023-02-22T10:26:41;13.47;;;9.00;;
12328;SDS011;6230;52.390;10.256;2023-02-22T10:31:55;14.43;;;12.90;;
12328;SDS011;6230;52.390;10.256;2023-02-22T10:34:23;16.47;;;11.60;;
12328;SDS011;6230;52.390;10.256;2023-02-22T10:36:59;16.10;;;10.43;;
12328;SDS011;6230;52.390;10.256;2023-02-22T10:39:37;13.17;;;9.37;;
12328;SDS011;6230;52.390;10.256;2023-02-22T10:42:04;12.77;;;9.60;;
12328;SDS011;6230;52.390;10.256;2023-02-22T10:44:35;15.23;;;10.53;;
12328;SDS011;6230;52.390;10.256;2023-02-22T10:47:04;15.83;;;10.60;;
12328;SDS011;6230;52.390;10.256;2023-02-22T10:49:36;18.77;;;10.37;;
12328;SDS011;6230;52.390;10.256;2023-02-22T10:52:22;16.03;;;10.57;;
12328;SDS011;6230;52.390;10.256;2023-02-22T10:54:50;14.20;;;9.73;;
12328;SDS011;6230;52.390;10.256;2023-02-22T10:57:23;13.67;;;9.97;;
12328;SDS011;6230;52.390;10.256;2023-02-22T10:59:51;14.70;;;10.10;;
12328;SDS011;6230;52.390;10.256;2023-02-22T11:02:22;13.77;;;9.33;;
12328;SDS011;6230;52.390;10.256;2023-02-22T11:04:54;15.90;;;11.03;;
12328;SDS011;6230;52.390;10.256;2023-02-22T11:07:31;14.80;;;10.60;;
12328;SDS011;6230;52.390;10.256;2023-02-22T11:15:22;15.20;;;11.17;;
12328;SDS011;6230;52.390;10.256;2023-02-22T11:17:48;15.60;;;10.20;;
12328;SDS011;6230;52.390;10.256;2023-02-22T11:20:19;13.87;;;9.70;;
12328;SDS011;6230;52.390;10.256;2023-02-22T11:22:51;13.97;;;9.77;;
12328;SDS011;6230;52.390;10.256;2023-02-22T11:25:19;14.20;;;10.27;;
12328;SDS011;6230;52.390;10.256;2023-02-22T11:27:49;16.17;;;13.53;;
12328;SDS011;6230;52.390;10.256;2023-02-22T11:30:23;12.77;;;9.83;;
12328;SDS011;6230;52.390;10.256;2023-02-22T11:32:55;13.93;;;9.10;;
12328;SDS011;6230;52.390;10.256;2023-02-22T11:35:29;14.47;;;10.13;;
12328;SDS011;6230;52.390;10.256;2023-02-22T11:38:09;35.60;;;21.13;;
12328;SDS011;6230;52.390;10.256;2023-02-22T11:40:40;18.97;;;13.70;;
12328;SDS011;6230;52.390;10.256;2023-02-22T11:43:26;14.43;;;9.97;;
12328;SDS011;6230;52.390;10.256;2023-02-22T11:45:55;12.73;;;9.63;;
12328;SDS011;6230;52.390;10.256;2023-02-22T11:48:30;13.55;;;9.18;;
12328;SDS011;6230;52.390;10.256;2023-02-22T11:51:05;14.20;;;9.40;;
12328;SDS011;6230;52.390;10.256;2023-02-22T11:53:53;11.73;;;9.33;;
12328;SDS011;6230;52.390;10.256;2023-02-22T11:56:35;16.20;;;9.83;;
12328;SDS011;6230;52.390;10.256;2023-02-22T11:59:20;14.67;;;9.63;;
12328;SDS011;6230;52.390;10.256;2023-02-22T12:02:18;15.50;;;13.93;;
12328;SDS011;6230;52.390;10.256;2023-02-22T12:21:39;13.52;;;8.98;;
12328;SDS011;6230;52.390;10.256;2023-02-22T12:24:10;14.25;;;9.65;;
12328;SDS011;6230;52.390;10.256;2023-02-22T12:26:41;15.48;;;8.95;;
12328;SDS011;6230;52.390;10.256;2023-02-22T12:31:43;16.85;;;10.35;;
12328;SDS011;6230;52.390;10.256;2023-02-22T12:37:00;49.45;;;27.08;;
12328;SDS011;6230;52.390;10.256;2023-02-22T12:42:20;17.50;;;11.18;;
12328;SDS011;6230;52.390;10.256;2023-02-22T12:45:07;33.45;;;19.45;;
12328;SDS011;6230;52.390;10.256;2023-02-22T12:47:43;17.42;;;12.50;;
12328;SDS011;6230;52.390;10.256;2023-02-22T12:50:20;14.73;;;10.50;;
12328;SDS011;6230;52.390;10.256;2023-02-22T12:52:52;14.40;;;11.65;;
12328;SDS011;6230;52.390;10.256;2023-02-22T12:55:43;14.30;;;9.93;;
12328;SDS011;6230;52.390;10.256;2023-02-22T12:58:19;15.65;;;11.52;;
12328;SDS011;6230;52.390;10.256;2023-02-22T13:00:49;16.60;;;10.00;;
12328;SDS011;6230;52.390;10.256;2023-02-22T13:03:40;14.57;;;10.00;;
12328;SDS011;6230;52.390;10.256;2023-02-22T13:09:00;13.98;;;10.50;;
12328;SDS011;6230;52.390;10.256;2023-02-22T13:19:57;16.73;;;10.98;;
12328;SDS011;6230;52.390;10.256;2023-02-22T13:22:37;41.00;;;26.67;;
12328;SDS011;6230;52.390;10.256;2023-02-22T13:25:19;69.15;;;37.60;;
12328;SDS011;6230;52.390;10.256;2023-02-22T13:28:01;15.65;;;10.10;;
12328;SDS011;6230;52.390;10.256;2023-02-22T13:36:40;14.82;;;9.85;;
12328;SDS011;6230;52.390;10.256;2023-02-22T13:39:38;12.75;;;10.48;;
12328;SDS011;6230;52.390;10.256;2023-02-22T13:42:21;13.27;;;9.85;;
12328;SDS011;6230;52.390;10.256;2023-02-22T13:45:08;16.00;;;9.73;;
12328;SDS011;6230;52.390;10.256;2023-02-22T13:47:53;13.05;;;10.35;;
12328;SDS011;6230;52.390;10.256;2023-02-22T13:53:13;16.42;;;10.27;;
12328;SDS011;6230;52.390;10.256;2023-02-22T13:55:42;14.00;;;9.52;;
12328;SDS011;6230;52.390;10.256;2023-02-22T13:58:15;16.10;;;10.93;;
12328;SDS011;6230;52.390;10.256;2023-02-22T14:00:51;15.50;;;12.32;;
12328;SDS011;6230;52.390;10.256;2023-02-22T14:03:36;16.38;;;10.68;;
12328;SDS011;6230;52.390;10.256;2023-02-22T14:06:47;32.17;;;17.35;;
12328;SDS011;6230;52.390;10.256;2023-02-22T14:09:12;45.30;;;26.23;;
12328;SDS011;6230;52.390;10.256;2023-02-22T14:11:43;13.30;;;10.32;;
12328;SDS011;6230;52.390;10.256;2023-02-22T14:14:11;14.25;;;9.50;;
12328;SDS011;6230;52.390;10.256;2023-02-22T14:16:38;13.87;;;9.67;;
12328;SDS011;6230;52.390;10.256;2023-02-22T14:21:33;63.75;;;31.67;;
12328;SDS011;6230;52.390;10.256;2023-02-22T14:24:05;41.80;;;22.83;;
12328;SDS011;6230;52.390;10.256;2023-02-22T14:26:39;15.48;;;11.60;;
12328;SDS011;6230;52.390;10.256;2023-02-22T14:34:53;15.23;;;10.13;;
12328;SDS011;6230;52.390;10.256;2023-02-22T14:39:48;19.57;;;17.10;;
12328;SDS011;6230;52.390;10.256;2023-02-22T14:42:16;14.77;;;9.80;;
12328;SDS011;6230;52.390;10.256;2023-02-22T14:47:27;13.83;;;9.53;;
12328;SDS011;6230;52.390;10.256;2023-02-22T14:50:04;14.73;;;9.85;;
12328;SDS011;6230;52.390;10.256;2023-02-22T14:52:36;17.70;;;13.30;;
12328;SDS011;6230;52.390;10.256;2023-02-22T14:55:05;15.43;;;11.20;;
12328;SDS011;6230;52.390;10.256;2023-02-22T15:00:24;16.83;;;14.40;;
12328;SDS011;6230;52.390;10.256;2023-02-22T15:02:55;13.40;;;9.57;;
12328;SDS011;6230;52.390;10.256;2023-02-22T15:05:23;12.70;;;9.57;;
12328;SDS011;6230;52.390;10.256;2023-02-22T15:07:58;14.77;;;11.00;;
12328;SDS011;6230;52.390;10.256;2023-02-22T15:13:03;13.05;;;9.95;;
12328;SDS011;6230;52.390;10.256;2023-02-22T15:15:33;21.35;;;15.55;;
12328;SDS011;6230;52.390;10.256;2023-02-22T15:18:21;14.47;;;11.57;;
12328;SDS011;6230;52.390;10.256;2023-02-22T15:20:51;17.80;;;13.77;;
12328;SDS011;6230;52.390;10.256;2023-02-22T15:23:26;16.60;;;12.38;;
12328;SDS011;6230;52.390;10.256;2023-02-22T15:25:57;22.25;;;17.83;;
12328;SDS011;6230;52.390;10.256;2023-02-22T15:28:23;20.20;;;16.20;;
12328;SDS011;6230;52.390;10.256;2023-02-22T15:31:05;14.67;;;10.80;;
12328;SDS011;6230;52.390;10.256;2023-02-22T15:33:39;14.32;;;11.50;;
12328;SDS011;6230;52.390;10.256;2023-02-22T15:36:11;12.82;;;10.75;;
12328;SDS011;6230;52.390;10.256;2023-02-22T15:38:39;14.63;;;12.73;;
12328;SDS011;6230;52.390;10.256;2023-02-22T15:41:05;14.23;;;11.83;;
12328;SDS011;6230;52.390;10.256;2023-02-22T15:43:37;17.20;;;12.40;;
12328;SDS011;6230;52.390;10.256;2023-02-22T15:46:04;19.00;;;14.57;;
12328;SDS011;6230;52.390;10.256;2023-02-22T15:48:31;33.37;;;26.47;;
12328;SDS011;6230;52.390;10.256;2023-02-22T15:51:08;15.30;;;12.57;;
12328;SDS011;6230;52.390;10.256;2023-02-22T15:53:39;27.07;;;21.10;;
12328;SDS011;6230;52.390;10.256;2023-02-22T15:56:16;18.97;;;14.93;;
12328;SDS011;6230;52.390;10.256;2023-02-22T15:58:44;18.17;;;13.60;;
12328;SDS011;6230;52.390;10.256;2023-02-22T16:01:15;15.23;;;13.63;;
12328;SDS011;6230;52.390;10.256;2023-02-22T16:03:49;31.17;;;19.93;;
12328;SDS011;6230;52.390;10.256;2023-02-22T16:06:50;21.53;;;17.67;;
12328;SDS011;6230;52.390;10.256;2023-02-22T16:09:10;23.63;;;17.43;;
12328;SDS011;6230;52.390;10.256;2023-02-22T16:11:43;17.93;;;15.03;;
12328;SDS011;6230;52.390;10.256;2023-02-22T16:19:49;22.93;;;18.80;;
12328;SDS011;6230;52.390;10.256;2023-02-22T16:22:23;18.60;;;14.00;;
12328;SDS011;6230;52.390;10.256;2023-02-22T16:24:52;21.53;;;16.03;;
12328;SDS011;6230;52.390;10.256;2023-02-22T16:27:19;20.23;;;15.83;;
12328;SDS011;6230;52.390;10.256;2023-02-22T16:30:20;18.77;;;15.43;;
12328;SDS011;6230;52.390;10.256;2023-02-22T16:32:42;23.23;;;17.57;;
12328;SDS011;6230;52.390;10.256;2023-02-22T16:35:08;29.70;;;21.70;;
12328;SDS011;6230;52.390;10.256;2023-02-22T16:37:43;75.20;;;44.73;;
12328;SDS011;6230;52.390;10.256;2023-02-22T16:43:11;21.20;;;17.73;;
12328;SDS011;6230;52.390;10.256;2023-02-22T16:45:39;21.87;;;18.37;;
12328;SDS011;6230;52.390;10.256;2023-02-22T16:48:16;22.33;;;20.10;;
12328;SDS011;6230;52.390;10.256;2023-02-22T16:50:47;20.17;;;17.33;;
12328;SDS011;6230;52.390;10.256;2023-02-22T16:53:14;27.27;;;24.77;;
12328;SDS011;6230;52.390;10.256;2023-02-22T16:55:43;19.10;;;17.10;;